createdAt,value
2019-01-06T14:15:50.497Z,7.40
2019-01-06T14:18:22.476Z,7.23
2019-01-06T14:20:57.029Z,7.27
2019-01-06T14:23:30.256Z,8.00
2019-01-06T14:26:10.144Z,7.30
2019-01-06T14:28:57.663Z,7.50
2019-01-06T14:31:34.278Z,7.57
2019-01-06T14:34:18.213Z,7.23
2019-01-06T14:37:01.094Z,7.53
2019-01-06T14:39:48.175Z,7.30
2019-01-06T14:42:21.946Z,7.30
2019-01-06T14:44:55.586Z,7.60
2019-01-06T14:47:55.411Z,6.90
2019-01-06T14:50:32.586Z,7.60
2019-01-06T14:53:03.429Z,7.03
2019-01-06T14:55:37.041Z,6.77
2019-01-06T14:58:07.897Z,7.70
2019-01-06T15:00:44.627Z,7.13
2019-01-06T15:03:31.707Z,7.47
2019-01-06T15:06:02.537Z,7.17
2019-01-06T15:08:49.757Z,7.07
2019-01-06T15:11:32.985Z,8.73
2019-01-06T15:14:06.559Z,7.83
2019-01-06T15:16:42.939Z,7.53
2019-01-06T15:19:13.771Z,7.27
2019-01-06T15:22:00.726Z,7.27
2019-01-06T15:24:34.246Z,7.57
2019-01-06T15:27:05.066Z,7.33
2019-01-06T15:29:41.796Z,7.60
2019-01-06T15:32:18.557Z,8.00
2019-01-06T15:35:05.522Z,7.87
2019-01-06T15:37:36.346Z,8.37
2019-01-06T15:40:09.480Z,7.80
2019-01-06T15:42:40.338Z,7.77
2019-01-06T15:45:13.886Z,8.10
2019-01-06T15:47:53.674Z,8.17
2019-01-06T15:50:27.309Z,8.50
2019-01-06T15:53:00.824Z,9.17
2019-01-06T15:55:46.674Z,8.63
2019-01-06T15:58:26.378Z,9.03
2019-01-06T16:01:13.134Z,8.73
2019-01-06T16:03:58.882Z,9.43
2019-01-06T16:06:41.798Z,8.90
2019-01-06T16:09:28.836Z,8.63
2019-01-06T16:12:14.543Z,8.27
2019-01-06T16:14:50.971Z,8.60
2019-01-06T16:17:21.806Z,9.23
2019-01-06T16:20:04.351Z,9.00
2019-01-06T16:22:40.790Z,8.80
2019-01-06T16:25:23.403Z,10.03
2019-01-06T16:28:05.848Z,10.00
2019-01-06T16:30:39.573Z,10.17
2019-01-06T16:33:28.629Z,10.53
2019-01-06T16:36:02.185Z,10.87
2019-01-06T16:38:33.063Z,11.03
2019-01-06T16:41:12.966Z,10.57
2019-01-06T16:43:43.805Z,10.40
2019-01-06T16:46:17.458Z,11.73
2019-01-06T16:49:00.400Z,12.37
2019-01-06T16:51:34.074Z,11.97
2019-01-06T16:54:04.895Z,12.87
2019-01-06T16:56:52.002Z,14.17
2019-01-06T16:59:41.015Z,12.80
2019-01-06T17:02:28.195Z,13.40
2019-01-06T17:04:59.036Z,13.63
2019-01-06T17:07:29.859Z,13.23
2019-01-06T17:10:16.995Z,12.77
2019-01-06T17:12:53.550Z,12.00
2019-01-06T17:15:26.863Z,12.80
2019-01-06T17:18:06.614Z,13.10
2019-01-06T17:20:40.031Z,13.27
2019-01-06T17:23:27.041Z,12.70
2019-01-06T17:25:57.895Z,13.30
2019-01-06T17:28:31.534Z,12.70
2019-01-06T17:31:07.861Z,12.93
2019-01-06T17:33:44.156Z,12.17
2019-01-06T17:36:26.714Z,12.00
2019-01-06T17:39:03.827Z,13.87
2019-01-06T17:41:34.676Z,15.63
2019-01-06T17:44:21.589Z,14.37
2019-01-06T17:46:58.282Z,14.27
2019-01-06T17:49:31.741Z,13.83
2019-01-06T17:52:02.594Z,13.23
2019-01-06T17:54:49.720Z,13.07
2019-01-06T17:57:36.758Z,12.63
2019-01-06T18:00:13.474Z,12.73
2019-01-06T18:02:44.299Z,11.67
2019-01-06T18:05:15.127Z,12.87
2019-01-06T18:07:48.825Z,13.10
2019-01-06T18:10:34.533Z,13.37
2019-01-06T18:13:05.391Z,12.50
2019-01-06T18:15:54.003Z,12.97
2019-01-06T18:18:27.503Z,13.57
2019-01-06T18:20:58.325Z,13.30
2019-01-06T18:23:41.127Z,13.63
2019-01-06T18:26:11.941Z,14.07
2019-01-06T18:28:45.428Z,13.13
2019-01-06T18:31:31.143Z,13.30
2019-01-06T18:34:10.725Z,13.70
2019-01-06T18:36:50.410Z,13.73
2019-01-06T18:39:36.229Z,15.20
2019-01-06T18:42:15.951Z,13.97
2019-01-06T18:44:46.783Z,13.20
2019-01-06T18:47:33.699Z,15.27
2019-01-06T18:50:07.491Z,15.47
2019-01-06T18:52:54.498Z,15.90
2019-01-06T18:55:41.470Z,16.07
2019-01-06T18:58:18.272Z,15.47
2019-01-06T19:00:55.796Z,14.70
2019-01-06T19:03:38.814Z,14.47
2019-01-06T19:06:15.687Z,14.70
2019-01-06T19:08:46.528Z,14.53
2019-01-06T19:11:26.208Z,15.87
2019-01-06T19:14:05.860Z,15.33
2019-01-06T19:16:36.685Z,15.80
2019-01-06T19:19:22.411Z,16.47
2019-01-06T19:22:09.224Z,15.93
2019-01-06T19:24:45.954Z,16.90
2019-01-06T19:27:32.909Z,15.83
2019-01-06T19:30:19.934Z,15.90
